Time;durP1;ratioP1;P1;durP2;ratioP2;P2;SDS_P1;SDS_P2;PMS_P1;PMS_P2;Temp;Humidity;BMP_temperature;BMP_pressure;BME280_temperature;BME280_humidity;BME280_pressure;Samples;Min_cycle;Max_cycle;Signal;HPM_P1;HPM_P2
2023/07/21 00:00:00;;;;;;;8.80;4.47;;;;;;;;;;5114804;28;20207;-77
2023/07/21 00:02:27;;;;;;;7.50;4.40;;;;;;;;;;5095859;28;20268;-77
2023/07/21 00:04:56;;;;;;;4.67;4.27;;;;;;;;;;5114429;28;20651;-77
2023/07/21 00:07:24;;;;;;;6.97;4.70;;;;;;;;;;5113769;28;20191;-77
2023/07/21 00:09:52;;;;;;;6.77;4.03;;;;;;;;;;5096717;28;20522;-77
2023/07/21 00:12:19;;;;;;;5.07;4.20;;;;;;;;;;5114548;28;20191;-77
2023/07/21 00:14:46;;;;;;;12.93;5.23;;;;;;;;;;5113919;28;20588;-77
2023/07/21 00:17:13;;;;;;;5.20;4.50;;;;;;;;;;5095870;28;20196;-77
2023/07/21 00:19:41;;;;;;;5.23;4.67;;;;;;;;;;5095691;28;20206;-77
2023/07/21 00:22:10;;;;;;;8.10;4.93;;;;;;;;;;5095521;28;20211;-77
2023/07/21 00:24:37;;;;;;;5.20;4.20;;;;;;;;;;5095720;28;20206;-77
2023/07/21 00:27:05;;;;;;;6.90;4.20;;;;;;;;;;5078969;28;20282;-77
2023/07/21 00:29:32;;;;;;;7.80;4.40;;;;;;;;;;5113467;28;20719;-77
2023/07/21 00:32:01;;;;;;;6.73;4.17;;;;;;;;;;5095682;28;20199;-77
2023/07/21 00:34:28;;;;;;;5.13;4.57;;;;;;;;;;5114068;28;20204;-77
2023/07/21 00:36:57;;;;;;;10.70;5.20;;;;;;;;;;5095232;28;20257;-77
2023/07/21 00:39:25;;;;;;;5.37;4.20;;;;;;;;;;5095476;28;20199;-77
2023/07/21 00:41:53;;;;;;;5.40;4.63;;;;;;;;;;5094833;28;20215;-77
2023/07/21 00:44:20;;;;;;;7.30;4.10;;;;;;;;;;5113816;28;20569;-77
2023/07/21 00:46:47;;;;;;;7.90;4.67;;;;;;;;;;5095927;28;20199;-77
2023/07/21 00:49:14;;;;;;;7.80;4.23;;;;;;;;;;5094471;28;20199;-77
2023/07/21 00:51:41;;;;;;;4.50;4.03;;;;;;;;;;5113637;28;20566;-77
2023/07/21 00:54:08;;;;;;;5.07;3.77;;;;;;;;;;5061948;28;20207;-77
2023/07/21 00:56:37;;;;;;;4.97;4.20;;;;;;;;;;5078081;28;20199;-77
2023/07/21 00:59:04;;;;;;;6.03;3.90;;;;;;;;;;5113004;28;20203;-77
2023/07/21 01:01:32;;;;;;;7.37;4.10;;;;;;;;;;5094969;28;20257;-77
2023/07/21 01:03:59;;;;;;;4.90;4.40;;;;;;;;;;5078773;28;20191;-77
2023/07/21 01:06:27;;;;;;;4.97;4.40;;;;;;;;;;5094852;28;20195;-77
2023/07/21 01:08:56;;;;;;;7.23;4.63;;;;;;;;;;5113216;28;20214;-77
2023/07/21 01:11:24;;;;;;;5.30;4.30;;;;;;;;;;5113461;28;20253;-77
2023/07/21 01:13:54;;;;;;;4.80;3.73;;;;;;;;;;5112812;28;20214;-77
2023/07/21 01:16:22;;;;;;;4.93;3.80;;;;;;;;;;5112638;28;20203;-77
2023/07/21 01:18:49;;;;;;;5.03;4.50;;;;;;;;;;5094060;28;20260;-77
2023/07/21 01:21:22;;;;;;;4.83;4.37;;;;;;;;;;5094318;28;20203;-77
2023/07/21 01:23:54;;;;;;;4.73;4.20;;;;;;;;;;5112611;28;20306;-77
2023/07/21 01:26:24;;;;;;;5.93;4.27;;;;;;;;;;5094455;28;20199;-77
2023/07/21 01:28:51;;;;;;;6.60;4.77;;;;;;;;;;5112570;28;20195;-77
2023/07/21 01:31:19;;;;;;;7.77;4.23;;;;;;;;;;5094411;28;20678;-77
2023/07/21 01:33:47;;;;;;;5.00;4.37;;;;;;;;;;5112709;28;20286;-77
2023/07/21 01:36:15;;;;;;;6.93;4.23;;;;;;;;;;5113212;28;20233;-77
2023/07/21 01:38:42;;;;;;;5.17;4.20;;;;;;;;;;5112183;28;20195;-77
2023/07/21 01:41:12;;;;;;;5.17;4.47;;;;;;;;;;5112310;28;20196;-77
2023/07/21 01:43:41;;;;;;;7.13;3.93;;;;;;;;;;5094154;28;20760;-77
2023/07/21 01:46:10;;;;;;;5.77;4.47;;;;;;;;;;5112058;28;20692;-77
2023/07/21 01:48:37;;;;;;;7.17;4.23;;;;;;;;;;5112288;28;20206;-77
2023/07/21 01:51:06;;;;;;;5.33;4.40;;;;;;;;;;5094232;28;20256;-77
2023/07/21 01:53:35;;;;;;;5.03;4.13;;;;;;;;;;5112321;28;20196;-77
2023/07/21 01:56:04;;;;;;;8.17;4.70;;;;;;;;;;5112119;28;20191;-77
2023/07/21 01:58:31;;;;;;;6.43;3.90;;;;;;;;;;5112386;28;20207;-77
2023/07/21 02:01:01;;;;;;;6.70;5.40;;;;;;;;;;5094934;28;20222;-77
2023/07/21 02:03:29;;;;;;;4.83;4.43;;;;;;;;;;5112123;28;20731;-77
2023/07/21 02:05:56;;;;;;;4.47;4.07;;;;;;;;;;5111961;28;20621;-77
2023/07/21 02:08:23;;;;;;;6.03;4.83;;;;;;;;;;5112362;28;20200;-77
2023/07/21 02:10:52;;;;;;;5.53;4.90;;;;;;;;;;5077697;28;20191;-77
2023/07/21 02:13:18;;;;;;;5.47;5.00;;;;;;;;;;5094115;28;20760;-77
2023/07/21 02:15:47;;;;;;;5.83;4.23;;;;;;;;;;5112071;28;20195;-77
2023/07/21 02:18:15;;;;;;;5.97;4.47;;;;;;;;;;5094213;28;20207;-77
2023/07/21 02:20:42;;;;;;;8.33;4.57;;;;;;;;;;5111885;28;20685;-77
2023/07/21 02:23:09;;;;;;;6.13;4.33;;;;;;;;;;5094147;28;20223;-77
2023/07/21 02:25:36;;;;;;;6.90;4.77;;;;;;;;;;5093904;28;20253;-77
2023/07/21 02:28:03;;;;;;;5.90;3.90;;;;;;;;;;5111844;28;20202;-77
2023/07/21 02:30:30;;;;;;;6.00;5.13;;;;;;;;;;5095647;28;20199;-77
2023/07/21 02:32:57;;;;;;;7.10;4.87;;;;;;;;;;5080914;28;20203;-77
2023/07/21 02:35:25;;;;;;;7.87;4.67;;;;;;;;;;5114756;28;20203;-77
2023/07/21 02:37:52;;;;;;;6.63;4.87;;;;;;;;;;5097817;28;20199;-77
2023/07/21 02:40:20;;;;;;;5.33;4.53;;;;;;;;;;5097657;28;20577;-77
2023/07/21 02:42:46;;;;;;;5.30;4.80;;;;;;;;;;5097964;28;20222;-77
2023/07/21 02:45:13;;;;;;;6.60;4.93;;;;;;;;;;5116520;28;20207;-77
2023/07/21 02:47:41;;;;;;;5.00;4.57;;;;;;;;;;5097606;28;20207;-77
2023/07/21 02:50:11;;;;;;;4.67;4.20;;;;;;;;;;5097748;28;20256;-77
2023/07/21 02:52:42;;;;;;;7.23;4.67;;;;;;;;;;5115168;28;20195;-77
2023/07/21 02:55:09;;;;;;;8.23;4.87;;;;;;;;;;5115623;28;20679;-77
2023/07/21 02:57:36;;;;;;;6.37;4.17;;;;;;;;;;5115345;28;20206;-77
2023/07/21 03:00:04;;;;;;;5.03;4.40;;;;;;;;;;5097524;28;20677;-77
2023/07/21 03:02:33;;;;;;;5.10;4.60;;;;;;;;;;5097224;28;20687;-77
2023/07/21 03:05:03;;;;;;;7.93;5.00;;;;;;;;;;5080890;28;20206;-77
2023/07/21 03:07:30;;;;;;;5.53;5.00;;;;;;;;;;5115204;28;20252;-77
2023/07/21 03:09:59;;;;;;;9.73;5.50;;;;;;;;;;5115331;28;20204;-77
2023/07/21 03:12:26;;;;;;;7.33;4.80;;;;;;;;;;5115500;28;20191;-77
2023/07/21 03:14:53;;;;;;;6.60;4.73;;;;;;;;;;5115169;28;20248;-77
2023/07/21 03:17:20;;;;;;;7.77;5.23;;;;;;;;;;5115021;28;20199;-76
2023/07/21 03:19:48;;;;;;;5.50;4.00;;;;;;;;;;5115144;28;20196;-77
2023/07/21 03:22:16;;;;;;;7.77;4.87;;;;;;;;;;5097343;28;20199;-77
2023/07/21 03:24:43;;;;;;;6.40;4.73;;;;;;;;;;5114801;28;20223;-77
2023/07/21 03:27:12;;;;;;;5.27;4.73;;;;;;;;;;5096798;28;20199;-77
2023/07/21 03:29:39;;;;;;;6.30;4.70;;;;;;;;;;5096837;28;20195;-77
2023/07/21 03:32:07;;;;;;;5.77;4.37;;;;;;;;;;5114254;28;20195;-77
2023/07/21 03:34:35;;;;;;;5.40;4.90;;;;;;;;;;5115242;28;20203;-77
2023/07/21 03:37:07;;;;;;;5.57;4.37;;;;;;;;;;5114581;28;20675;-77
2023/07/21 03:39:34;;;;;;;12.47;4.80;;;;;;;;;;5115230;28;20199;-77
2023/07/21 03:42:01;;;;;;;5.33;4.83;;;;;;;;;;5096234;28;20196;-77
2023/07/21 03:44:30;;;;;;;8.77;5.20;;;;;;;;;;5096506;28;20223;-77
2023/07/21 03:46:56;;;;;;;6.37;4.87;;;;;;;;;;5096441;28;20207;-76
2023/07/21 03:49:23;;;;;;;8.50;4.30;;;;;;;;;;5114251;28;20210;-77
2023/07/21 03:51:50;;;;;;;5.20;4.60;;;;;;;;;;5114150;28;20228;-77
2023/07/21 03:54:17;;;;;;;6.17;4.80;;;;;;;;;;5096173;28;20199;-77
2023/07/21 03:56:44;;;;;;;5.27;4.50;;;;;;;;;;5096253;28;20252;-76
2023/07/21 03:59:11;;;;;;;6.63;4.30;;;;;;;;;;5114219;28;20202;-76
2023/07/21 04:01:40;;;;;;;5.60;4.87;;;;;;;;;;5114068;28;20199;-77
2023/07/21 04:04:07;;;;;;;6.63;5.37;;;;;;;;;;5113834;28;20227;-77
2023/07/21 04:06:34;;;;;;;6.57;4.20;;;;;;;;;;5096028;28;20203;-77
2023/07/21 04:09:01;;;;;;;8.53;4.90;;;;;;;;;;5094152;28;20661;-77
2023/07/21 04:11:28;;;;;;;5.70;4.43;;;;;;;;;;5079030;28;20203;-77
2023/07/21 04:13:56;;;;;;;7.07;4.47;;;;;;;;;;5096214;28;20202;-77
2023/07/21 04:16:23;;;;;;;6.60;4.90;;;;;;;;;;5062703;28;20289;-78
2023/07/21 04:18:51;;;;;;;5.00;4.37;;;;;;;;;;5079134;28;20248;-78
2023/07/21 04:21:18;;;;;;;6.47;4.43;;;;;;;;;;5079089;28;20286;-78
2023/07/21 04:23:46;;;;;;;8.37;4.07;;;;;;;;;;5113774;28;20685;-78
2023/07/21 04:26:14;;;;;;;6.03;5.27;;;;;;;;;;5113689;28;20696;-78
2023/07/21 04:28:42;;;;;;;6.47;4.47;;;;;;;;;;5095532;28;20199;-77
2023/07/21 04:31:09;;;;;;;6.73;5.70;;;;;;;;;;5113537;28;20248;-78
2023/07/21 04:33:36;;;;;;;5.23;4.53;;;;;;;;;;5079169;28;20223;-78
2023/07/21 04:36:06;;;;;;;10.10;4.47;;;;;;;;;;5113470;28;20199;-77
2023/07/21 04:38:34;;;;;;;9.00;5.77;;;;;;;;;;5095565;28;20192;-78
2023/07/21 04:41:01;;;;;;;13.03;5.30;;;;;;;;;;5113834;28;20200;-78
2023/07/21 04:43:28;;;;;;;15.63;5.97;;;;;;;;;;5061868;28;20238;-78
2023/07/21 04:45:55;;;;;;;13.77;4.70;;;;;;;;;;5113428;28;20191;-78
2023/07/21 04:48:23;;;;;;;6.97;4.83;;;;;;;;;;5113173;28;20674;-78
2023/07/21 04:50:52;;;;;;;5.83;4.73;;;;;;;;;;5095564;28;20220;-78
2023/07/21 04:53:21;;;;;;;8.67;5.30;;;;;;;;;;5091282;28;20204;-78
2023/07/21 04:55:48;;;;;;;4.97;4.37;;;;;;;;;;5097348;28;20196;-78
2023/07/21 04:58:14;;;;;;;5.80;4.50;;;;;;;;;;5091259;28;20211;-78
2023/07/21 05:00:41;;;;;;;5.97;4.70;;;;;;;;;;5103985;28;20195;-78
2023/07/21 05:03:08;;;;;;;7.37;4.77;;;;;;;;;;5105058;28;20197;-78
2023/07/21 05:05:35;;;;;;;12.30;4.53;;;;;;;;;;5101609;28;20256;-78
2023/07/21 05:08:02;;;;;;;6.17;4.27;;;;;;;;;;5111616;28;20244;-78
2023/07/21 05:10:35;;;;;;;5.93;4.20;;;;;;;;;;5105461;28;20199;-78
2023/07/21 05:13:05;;;;;;;5.30;4.10;;;;;;;;;;5092534;28;20234;-78
2023/07/21 05:15:35;;;;;;;6.77;4.53;;;;;;;;;;5090952;28;20188;-78
2023/07/21 05:18:01;;;;;;;5.37;3.77;;;;;;;;;;5091874;28;20204;-79
2023/07/21 05:20:28;;;;;;;7.53;4.73;;;;;;;;;;5099420;28;20200;-78
2023/07/21 05:22:55;;;;;;;6.20;4.23;;;;;;;;;;5091540;28;20207;-78
2023/07/21 05:25:22;;;;;;;4.63;4.03;;;;;;;;;;5108980;28;20219;-78
2023/07/21 05:27:50;;;;;;;8.50;4.40;;;;;;;;;;5097519;28;20202;-78
2023/07/21 05:30:17;;;;;;;4.37;3.93;;;;;;;;;;5094195;28;20203;-78
2023/07/21 05:32:44;;;;;;;4.17;3.77;;;;;;;;;;5100062;28;20208;-78
2023/07/21 05:35:13;;;;;;;5.55;4.45;;;;;;;;;;5108336;28;20669;-78
2023/07/21 05:37:40;;;;;;;8.57;4.27;;;;;;;;;;5101732;28;20598;-78
2023/07/21 05:40:09;;;;;;;7.28;3.78;;;;;;;;;;5099563;28;20617;-78
2023/07/21 05:42:36;;;;;;;8.73;4.55;;;;;;;;;;5098858;28;20191;-78
2023/07/21 05:45:06;;;;;;;8.40;4.57;;;;;;;;;;5102041;28;20276;-78
2023/07/21 05:47:33;;;;;;;6.32;3.90;;;;;;;;;;5097555;28;20200;-78
2023/07/21 05:50:01;;;;;;;5.57;4.30;;;;;;;;;;5091373;28;20193;-79
2023/07/21 05:52:28;;;;;;;7.60;4.43;;;;;;;;;;5112252;28;20282;-78
2023/07/21 05:54:55;;;;;;;4.47;3.83;;;;;;;;;;5096027;28;20282;-78
2023/07/21 05:57:22;;;;;;;7.53;3.90;;;;;;;;;;5101353;28;20199;-78
2023/07/21 05:59:50;;;;;;;6.85;3.90;;;;;;;;;;5111850;28;20700;-77
2023/07/21 06:02:18;;;;;;;7.50;4.15;;;;;;;;;;5093219;28;20208;-78
2023/07/21 06:04:46;;;;;;;7.00;3.97;;;;;;;;;;5096282;28;20318;-78
2023/07/21 06:07:12;;;;;;;4.38;3.95;;;;;;;;;;5103759;28;20218;-77
2023/07/21 06:09:39;;;;;;;4.80;4.32;;;;;;;;;;5115455;28;20199;-79
2023/07/21 06:12:07;;;;;;;4.20;3.78;;;;;;;;;;5098427;28;20238;-78
2023/07/21 06:14:34;;;;;;;5.53;4.85;;;;;;;;;;5098406;28;20686;-78
2023/07/21 06:17:01;;;;;;;4.75;4.35;;;;;;;;;;5115535;28;20195;-78
2023/07/21 06:19:31;;;;;;;6.82;3.65;;;;;;;;;;5117891;28;20197;-78
2023/07/21 06:21:58;;;;;;;9.38;4.57;;;;;;;;;;5110854;28;20196;-78
2023/07/21 06:24:25;;;;;;;5.03;4.00;;;;;;;;;;5115711;28;20700;-78
2023/07/21 06:26:51;;;;;;;5.90;4.43;;;;;;;;;;5113018;28;20199;-78
2023/07/21 06:29:18;;;;;;;9.73;4.20;;;;;;;;;;5099374;28;20223;-78
2023/07/21 06:31:45;;;;;;;7.40;4.50;;;;;;;;;;5111192;28;20252;-78
2023/07/21 06:34:12;;;;;;;6.47;4.30;;;;;;;;;;5108974;28;20661;-78
2023/07/21 06:36:40;;;;;;;9.93;4.18;;;;;;;;;;5107200;28;20271;-78
2023/07/21 06:39:07;;;;;;;4.55;4.07;;;;;;;;;;5098550;28;20204;-78
2023/07/21 06:41:34;;;;;;;6.20;3.97;;;;;;;;;;5096963;28;20196;-78
2023/07/21 06:44:01;;;;;;;4.43;3.80;;;;;;;;;;5098565;28;20227;-78
2023/07/21 06:46:28;;;;;;;5.50;3.83;;;;;;;;;;5112281;28;20195;-78
2023/07/21 06:48:54;;;;;;;4.75;3.88;;;;;;;;;;5117793;28;20269;-78
2023/07/21 06:51:21;;;;;;;4.65;3.70;;;;;;;;;;5118674;28;20230;-78
2023/07/21 06:53:51;;;;;;;7.00;3.60;;;;;;;;;;5110697;28;20199;-78
2023/07/21 06:56:17;;;;;;;4.97;4.22;;;;;;;;;;5097155;28;20746;-77
2023/07/21 06:58:44;;;;;;;4.45;4.05;;;;;;;;;;5102494;28;20199;-78
2023/07/21 07:01:11;;;;;;;4.05;3.50;;;;;;;;;;5117676;28;20206;-78
2023/07/21 07:03:38;;;;;;;6.75;4.13;;;;;;;;;;5105318;28;20250;-78
2023/07/21 07:06:05;;;;;;;7.57;4.13;;;;;;;;;;5113005;28;20210;-78
2023/07/21 07:08:32;;;;;;;7.22;3.60;;;;;;;;;;5116235;28;20195;-78
2023/07/21 07:11:00;;;;;;;6.15;3.97;;;;;;;;;;5097399;28;20188;-77
2023/07/21 07:13:27;;;;;;;5.35;3.63;;;;;;;;;;5097312;28;20193;-78
2023/07/21 07:15:54;;;;;;;4.03;3.70;;;;;;;;;;5097148;28;20203;-78
2023/07/21 07:18:21;;;;;;;10.35;3.92;;;;;;;;;;5092836;28;20193;-78
2023/07/21 07:20:51;;;;;;;10.82;4.20;;;;;;;;;;5111472;28;20278;-78
2023/07/21 07:23:18;;;;;;;6.20;4.10;;;;;;;;;;5114252;28;20195;-78
2023/07/21 07:25:50;;;;;;;4.85;3.92;;;;;;;;;;5114576;28;20258;-78
2023/07/21 07:28:20;;;;;;;7.20;4.55;;;;;;;;;;5115587;28;20191;-78
2023/07/21 07:30:47;;;;;;;6.18;4.00;;;;;;;;;;5114838;28;20192;-78
2023/07/21 07:33:14;;;;;;;5.13;3.60;;;;;;;;;;5113998;28;20192;-78
2023/07/21 07:35:47;;;;;;;6.07;4.57;;;;;;;;;;5115881;28;20260;-78
2023/07/21 07:38:14;;;;;;;7.35;3.78;;;;;;;;;;5115504;28;20198;-78
2023/07/21 07:40:41;;;;;;;5.32;4.05;;;;;;;;;;5114626;28;20202;-78
2023/07/21 07:43:08;;;;;;;4.10;3.28;;;;;;;;;;5114640;28;20677;-78
2023/07/21 07:45:38;;;;;;;4.20;3.90;;;;;;;;;;5114521;28;20223;-78
2023/07/21 07:48:06;;;;;;;4.18;3.78;;;;;;;;;;5114453;28;20199;-78
2023/07/21 07:50:36;;;;;;;6.05;3.92;;;;;;;;;;5114256;28;20681;-78
2023/07/21 07:53:03;;;;;;;4.88;3.95;;;;;;;;;;5114894;28;20574;-78
2023/07/21 07:55:30;;;;;;;6.47;4.30;;;;;;;;;;5114465;28;20199;-78
2023/07/21 07:57:57;;;;;;;5.53;4.13;;;;;;;;;;5114813;28;20214;-78
2023/07/21 08:00:24;;;;;;;8.13;4.18;;;;;;;;;;5115234;28;20195;-77
2023/07/21 08:02:52;;;;;;;5.82;4.30;;;;;;;;;;5114128;28;20199;-78
2023/07/21 08:05:19;;;;;;;4.95;4.22;;;;;;;;;;5114242;28;20222;-77
2023/07/21 08:07:48;;;;;;;6.15;4.40;;;;;;;;;;5114390;28;20627;-78
2023/07/21 08:10:15;;;;;;;5.93;4.55;;;;;;;;;;5114433;28;20195;-78
2023/07/21 08:12:42;;;;;;;5.18;4.13;;;;;;;;;;5114809;28;20600;-78
2023/07/21 08:15:09;;;;;;;6.35;5.05;;;;;;;;;;5114053;28;20199;-78
2023/07/21 08:17:37;;;;;;;5.00;4.22;;;;;;;;;;5111500;28;20199;-78
2023/07/21 08:20:06;;;;;;;5.78;4.80;;;;;;;;;;5093604;28;20204;-78
2023/07/21 08:22:33;;;;;;;5.68;5.18;;;;;;;;;;5093655;28;20193;-78
2023/07/21 08:25:00;;;;;;;7.28;5.20;;;;;;;;;;5102484;28;20712;-78
2023/07/21 08:27:27;;;;;;;5.65;5.07;;;;;;;;;;5112890;28;20234;-77
2023/07/21 08:29:54;;;;;;;6.75;4.95;;;;;;;;;;5113593;28;20606;-77
2023/07/21 08:32:21;;;;;;;5.55;5.05;;;;;;;;;;5093185;28;20249;-77
2023/07/21 08:34:48;;;;;;;10.27;4.85;;;;;;;;;;5107665;28;20195;-78
2023/07/21 08:37:16;;;;;;;8.25;5.05;;;;;;;;;;5103335;28;20196;-79
2023/07/21 08:39:43;;;;;;;6.80;6.10;;;;;;;;;;5101505;28;20199;-77
2023/07/21 08:42:11;;;;;;;5.38;4.60;;;;;;;;;;5092844;28;20655;-78
2023/07/21 08:44:38;;;;;;;8.15;5.10;;;;;;;;;;5091303;28;20281;-78
2023/07/21 08:47:06;;;;;;;10.80;5.60;;;;;;;;;;5093351;28;20208;-78
2023/07/21 08:49:33;;;;;;;9.57;5.78;;;;;;;;;;5109558;28;20214;-78
2023/07/21 08:52:00;;;;;;;9.65;5.75;;;;;;;;;;5113464;28;20597;-78
2023/07/21 08:54:28;;;;;;;8.82;5.47;;;;;;;;;;5112627;28;20207;-79
2023/07/21 08:56:55;;;;;;;8.65;5.88;;;;;;;;;;5112709;28;20195;-78
2023/07/21 08:59:22;;;;;;;8.85;5.57;;;;;;;;;;5112764;28;20200;-78
2023/07/21 09:01:49;;;;;;;6.88;5.68;;;;;;;;;;5113149;28;20200;-78
2023/07/21 09:04:20;;;;;;;7.45;5.70;;;;;;;;;;5111022;28;20207;-78
2023/07/21 09:06:50;;;;;;;7.88;6.03;;;;;;;;;;5107237;28;20204;-78
2023/07/21 09:09:18;;;;;;;8.43;5.40;;;;;;;;;;5109192;28;20202;-78
2023/07/21 09:11:47;;;;;;;7.70;5.57;;;;;;;;;;5099753;28;20192;-78
2023/07/21 09:14:13;;;;;;;9.68;6.90;;;;;;;;;;5098657;28;20192;-78
2023/07/21 09:16:40;;;;;;;6.90;6.22;;;;;;;;;;5110096;28;20199;-78
2023/07/21 09:19:07;;;;;;;7.05;5.80;;;;;;;;;;5096293;28;20195;-78
2023/07/21 09:21:35;;;;;;;9.23;6.90;;;;;;;;;;5103102;28;20193;-78
2023/07/21 09:24:03;;;;;;;7.90;6.20;;;;;;;;;;5091939;28;20208;-78
2023/07/21 09:26:29;;;;;;;6.93;5.95;;;;;;;;;;5105491;28;20306;-78
2023/07/21 09:28:58;;;;;;;7.20;5.88;;;;;;;;;;5093554;28;20196;-78
2023/07/21 09:31:28;;;;;;;7.38;5.22;;;;;;;;;;5104339;28;20195;-78
2023/07/21 09:33:55;;;;;;;6.47;5.10;;;;;;;;;;5111468;28;20223;-78
2023/07/21 09:36:22;;;;;;;5.95;5.03;;;;;;;;;;5109894;28;20198;-78
2023/07/21 09:38:49;;;;;;;11.77;6.20;;;;;;;;;;5091358;28;20284;-78
2023/07/21 09:41:22;;;;;;;6.38;5.35;;;;;;;;;;5091443;28;20207;-78
2023/07/21 09:43:50;;;;;;;6.18;5.60;;;;;;;;;;5090924;28;20196;-78
2023/07/21 09:46:18;;;;;;;6.75;5.55;;;;;;;;;;5095759;28;20215;-78
2023/07/21 09:48:47;;;;;;;6.15;5.55;;;;;;;;;;5105373;28;20204;-78
2023/07/21 09:51:14;;;;;;;6.10;5.43;;;;;;;;;;5091694;28;20224;-78
2023/07/21 09:53:42;;;;;;;8.43;4.95;;;;;;;;;;5102563;28;20203;-78
2023/07/21 09:56:10;;;;;;;8.80;5.35;;;;;;;;;;5111663;28;20281;-78
2023/07/21 09:58:41;;;;;;;7.32;6.00;;;;;;;;;;5092950;28;20196;-78
2023/07/21 10:01:09;;;;;;;8.20;5.47;;;;;;;;;;5112163;28;20576;-78
2023/07/21 10:03:38;;;;;;;5.78;5.22;;;;;;;;;;5104288;28;20207;-78
2023/07/21 10:06:06;;;;;;;5.18;4.68;;;;;;;;;;5091176;28;20216;-78
2023/07/21 10:08:36;;;;;;;5.22;4.68;;;;;;;;;;5091152;28;20570;-78
2023/07/21 10:11:04;;;;;;;6.10;5.50;;;;;;;;;;5107921;28;20210;-78
2023/07/21 10:13:33;;;;;;;8.48;5.68;;;;;;;;;;5111139;28;20676;-78
2023/07/21 10:16:01;;;;;;;8.85;4.65;;;;;;;;;;5111516;28;20616;-78
2023/07/21 10:18:28;;;;;;;5.03;4.43;;;;;;;;;;5102609;28;20229;-78
2023/07/21 10:20:57;;;;;;;7.18;5.47;;;;;;;;;;5109583;28;20199;-78
2023/07/21 10:23:25;;;;;;;5.38;4.60;;;;;;;;;;5104422;28;20202;-78
2023/07/21 10:26:01;;;;;;;9.48;5.18;;;;;;;;;;5111889;28;20733;-78
2023/07/21 10:28:36;;;;;;;8.32;5.07;;;;;;;;;;5102362;28;20597;-78
2023/07/21 10:31:36;;;;;;;10.77;4.95;;;;;;;;;;5103506;28;20591;-78
2023/07/21 10:34:04;;;;;;;5.10;4.70;;;;;;;;;;5091626;28;20283;-79
2023/07/21 10:36:42;;;;;;;8.60;5.53;;;;;;;;;;5107833;28;20194;-78
2023/07/21 10:39:10;;;;;;;5.50;5.00;;;;;;;;;;5102743;28;20199;-78
2023/07/21 10:41:37;;;;;;;5.97;4.43;;;;;;;;;;5111834;28;20191;-79
2023/07/21 10:44:06;;;;;;;5.95;5.20;;;;;;;;;;5110707;28;20647;-78
2023/07/21 10:46:36;;;;;;;6.13;5.53;;;;;;;;;;5106919;28;20635;-78
2023/07/21 10:49:03;;;;;;;7.30;4.72;;;;;;;;;;5090393;28;20268;-78
2023/07/21 10:51:30;;;;;;;5.55;5.00;;;;;;;;;;5110562;28;20233;-78
2023/07/21 10:53:58;;;;;;;5.45;4.95;;;;;;;;;;5115358;28;20658;-78
2023/07/21 10:56:25;;;;;;;5.43;4.82;;;;;;;;;;5098752;28;20271;-78
2023/07/21 10:58:52;;;;;;;9.43;5.13;;;;;;;;;;5096261;28;20192;-78
2023/07/21 11:01:20;;;;;;;6.95;5.18;;;;;;;;;;5093473;28;20655;-78
2023/07/21 11:03:47;;;;;;;5.82;3.95;;;;;;;;;;5101045;28;20202;-78
2023/07/21 11:06:14;;;;;;;6.53;4.50;;;;;;;;;;5104953;28;20230;-78
2023/07/21 11:08:41;;;;;;;5.07;4.30;;;;;;;;;;5102468;28;20226;-78
2023/07/21 11:11:11;;;;;;;6.28;4.28;;;;;;;;;;5094601;28;20204;-79
2023/07/21 11:13:38;;;;;;;6.55;4.82;;;;;;;;;;5095613;28;20196;-78
2023/07/21 11:16:05;;;;;;;5.07;3.92;;;;;;;;;;5115342;28;20202;-79
2023/07/21 11:18:33;;;;;;;4.50;4.18;;;;;;;;;;5115344;28;20206;-79
2023/07/21 11:21:00;;;;;;;5.35;4.50;;;;;;;;;;5104777;28;20700;-78
2023/07/21 11:23:27;;;;;;;5.72;4.15;;;;;;;;;;5102403;28;20231;-78
2023/07/21 11:26:02;;;;;;;7.65;5.60;;;;;;;;;;5093836;28;20259;-79
2023/07/21 11:28:30;;;;;;;4.88;4.38;;;;;;;;;;5112151;28;20191;-79
2023/07/21 11:30:57;;;;;;;6.35;4.47;;;;;;;;;;5106224;28;20200;-78
2023/07/21 11:33:25;;;;;;;5.60;4.68;;;;;;;;;;5114649;28;20203;-79
2023/07/21 11:35:52;;;;;;;4.85;4.45;;;;;;;;;;5099397;28;20192;-78
2023/07/21 11:38:20;;;;;;;5.35;4.85;;;;;;;;;;5095944;28;20196;-78
2023/07/21 11:40:48;;;;;;;5.10;4.63;;;;;;;;;;5114913;28;20199;-78
2023/07/21 11:43:14;;;;;;;5.97;4.60;;;;;;;;;;5112701;28;20191;-79
2023/07/21 11:45:43;;;;;;;6.03;4.03;;;;;;;;;;5106070;28;20219;-78
2023/07/21 11:48:15;;;;;;;4.57;4.22;;;;;;;;;;5098079;28;20210;-78
2023/07/21 11:50:49;;;;;;;5.30;4.32;;;;;;;;;;5103577;28;20225;-78
2023/07/21 11:53:16;;;;;;;5.30;4.35;;;;;;;;;;5104882;28;20187;-78
2023/07/21 11:55:45;;;;;;;5.82;4.45;;;;;;;;;;5106267;28;20208;-79
2023/07/21 11:58:12;;;;;;;4.60;4.20;;;;;;;;;;5104236;28;20289;-78
2023/07/21 12:00:41;;;;;;;4.78;4.38;;;;;;;;;;5100165;28;20689;-78
2023/07/21 12:03:10;;;;;;;4.85;3.55;;;;;;;;;;5101573;28;20196;-78
2023/07/21 12:05:36;;;;;;;5.05;4.55;;;;;;;;;;5095451;28;20227;-79
2023/07/21 12:08:06;;;;;;;4.57;3.83;;;;;;;;;;5109834;28;20196;-78
2023/07/21 12:10:33;;;;;;;4.80;4.18;;;;;;;;;;5093767;28;20224;-78
2023/07/21 12:13:03;;;;;;;4.53;4.00;;;;;;;;;;5092162;28;20200;-79
2023/07/21 12:15:31;;;;;;;5.18;4.38;;;;;;;;;;5097897;28;20199;-78
2023/07/21 12:17:57;;;;;;;4.85;4.45;;;;;;;;;;5105910;28;20193;-79
2023/07/21 12:20:27;;;;;;;4.88;3.95;;;;;;;;;;5111435;28;20192;-79
2023/07/21 12:22:53;;;;;;;5.03;3.53;;;;;;;;;;5113193;28;20231;-78
2023/07/21 12:25:20;;;;;;;5.55;4.25;;;;;;;;;;5113397;28;20195;-78
2023/07/21 12:27:47;;;;;;;4.43;4.03;;;;;;;;;;5114338;28;20611;-78
2023/07/21 12:30:14;;;;;;;4.40;3.92;;;;;;;;;;5098988;28;20200;-78
2023/07/21 12:32:41;;;;;;;6.05;4.80;;;;;;;;;;5092392;28;20196;-78
2023/07/21 12:35:09;;;;;;;5.13;3.97;;;;;;;;;;5103933;28;20291;-79
2023/07/21 12:37:39;;;;;;;4.10;3.80;;;;;;;;;;5105488;28;20609;-78
2023/07/21 12:40:11;;;;;;;4.20;3.80;;;;;;;;;;5092231;28;20640;-78
2023/07/21 12:42:39;;;;;;;4.32;3.92;;;;;;;;;;5089790;28;20203;-78
2023/07/21 12:45:07;;;;;;;8.77;3.97;;;;;;;;;;5112776;28;20192;-79
2023/07/21 12:47:33;;;;;;;5.40;4.18;;;;;;;;;;5097870;28;20318;-78
2023/07/21 12:50:00;;;;;;;4.20;3.90;;;;;;;;;;5104352;28;20192;-79
2023/07/21 12:52:27;;;;;;;4.68;4.15;;;;;;;;;;5104966;28;20206;-79
2023/07/21 12:54:55;;;;;;;5.15;3.83;;;;;;;;;;5099457;28;20657;-79
2023/07/21 12:57:22;;;;;;;6.93;4.60;;;;;;;;;;5112501;28;20225;-79
2023/07/21 12:59:49;;;;;;;4.75;4.10;;;;;;;;;;5111220;28;20207;-78
2023/07/21 13:02:16;;;;;;;6.40;4.97;;;;;;;;;;5111954;28;20630;-79
2023/07/21 13:04:42;;;;;;;7.25;3.83;;;;;;;;;;5104147;28;20199;-78
2023/07/21 13:07:10;;;;;;;4.22;3.75;;;;;;;;;;5107210;28;20230;-79
2023/07/21 13:09:37;;;;;;;5.25;3.78;;;;;;;;;;5100428;28;20196;-78
2023/07/21 13:12:06;;;;;;;3.72;3.42;;;;;;;;;;5112236;28;20603;-78
2023/07/21 13:14:33;;;;;;;3.78;3.30;;;;;;;;;;5111166;28;20196;-78
2023/07/21 13:17:00;;;;;;;5.13;4.05;;;;;;;;;;5111706;28;20200;-78
2023/07/21 13:19:27;;;;;;;4.47;3.92;;;;;;;;;;5106890;28;20270;-78
2023/07/21 13:21:53;;;;;;;6.80;3.65;;;;;;;;;;5093998;28;20196;-78
2023/07/21 13:24:20;;;;;;;4.95;4.47;;;;;;;;;;5112005;28;20244;-78
2023/07/21 13:26:47;;;;;;;5.18;3.70;;;;;;;;;;5111747;28;20219;-78
2023/07/21 13:29:15;;;;;;;4.53;4.05;;;;;;;;;;5101971;28;20204;-78
2023/07/21 13:31:42;;;;;;;3.92;3.53;;;;;;;;;;5102237;28;20203;-78
2023/07/21 13:34:09;;;;;;;3.92;3.58;;;;;;;;;;5091409;28;20192;-78
2023/07/21 13:36:36;;;;;;;6.35;4.35;;;;;;;;;;5108692;28;20199;-78
2023/07/21 13:39:03;;;;;;;4.00;3.58;;;;;;;;;;5101305;28;20196;-78
2023/07/21 13:41:30;;;;;;;3.97;3.60;;;;;;;;;;5105640;28;20196;-78
2023/07/21 13:43:56;;;;;;;5.30;3.78;;;;;;;;;;5102649;28;20202;-78
2023/07/21 13:46:25;;;;;;;4.40;3.65;;;;;;;;;;5095894;28;20216;-78
2023/07/21 13:48:52;;;;;;;5.47;4.00;;;;;;;;;;5102688;28;20260;-78
2023/07/21 13:51:19;;;;;;;5.13;3.88;;;;;;;;;;5111573;28;20279;-78
2023/07/21 13:53:46;;;;;;;5.10;4.35;;;;;;;;;;5100456;28;20203;-78
2023/07/21 13:56:13;;;;;;;6.18;4.00;;;;;;;;;;5094834;28;20218;-79
2023/07/21 13:58:40;;;;;;;5.72;4.38;;;;;;;;;;5111529;28;20195;-78
2023/07/21 14:01:06;;;;;;;4.97;4.00;;;;;;;;;;5105710;28;20196;-79
2023/07/21 14:03:35;;;;;;;4.13;3.72;;;;;;;;;;5090932;28;20200;-78
2023/07/21 14:06:02;;;;;;;4.63;3.67;;;;;;;;;;5104821;28;20232;-78
2023/07/21 14:08:29;;;;;;;6.78;4.05;;;;;;;;;;5091318;28;20284;-78
2023/07/21 14:10:56;;;;;;;5.78;3.88;;;;;;;;;;5103491;28;20257;-78
2023/07/21 14:13:23;;;;;;;6.05;3.47;;;;;;;;;;5104151;28;20203;-78
2023/07/21 14:15:50;;;;;;;4.80;3.30;;;;;;;;;;5104499;28;20617;-78
2023/07/21 14:18:17;;;;;;;5.22;4.00;;;;;;;;;;5104770;28;20199;-78
2023/07/21 14:20:45;;;;;;;3.95;3.58;;;;;;;;;;5103647;28;20202;-78
2023/07/21 14:23:13;;;;;;;3.60;3.30;;;;;;;;;;5091466;28;20192;-78
2023/07/21 14:25:40;;;;;;;4.32;3.92;;;;;;;;;;5111668;28;20203;-78
2023/07/21 14:28:07;;;;;;;5.05;4.38;;;;;;;;;;5101614;28;20227;-79
2023/07/21 14:30:34;;;;;;;6.90;3.92;;;;;;;;;;5115430;28;20680;-78
2023/07/21 14:33:01;;;;;;;4.03;3.63;;;;;;;;;;5114619;28;20278;-78
2023/07/21 14:35:28;;;;;;;4.30;3.55;;;;;;;;;;5094700;28;20204;-78
2023/07/21 14:37:56;;;;;;;5.47;3.95;;;;;;;;;;5096120;28;20199;-79
2023/07/21 14:40:23;;;;;;;4.00;3.38;;;;;;;;;;5115111;28;20194;-78
2023/07/21 14:42:50;;;;;;;5.28;3.90;;;;;;;;;;5101620;28;20257;-78
2023/07/21 14:45:17;;;;;;;4.40;3.97;;;;;;;;;;5106112;28;20200;-78